Terminal Aerodrome Forecast
Issued by NWS

Home | Current Version | Previous Version | Text Only | Print | Product List | Glossary On
Versions: 1 2 3 4 5 6 7 8 9 10 11 12 13 14 15 16 17 18 19 20 21 22
000
FTUS42 KGSP 181125
TAFHKY
TAF
KHKY 181125Z 1812/1912 00000KT 6SM BR OVC003
      TEMPO 1812/1813 OVC001
     FM181330 00000KT P6SM FEW040 SCT250
     FM181800 22006KT P6SM VCTS SCT050CB SCT250
     FM182100 25006KT P6SM BKN050 PROB30 1821/1824 4SM TSRA OVC025CB
     FM190000 29004KT P6SM SCT070=

USA.gov is the U.S. government's official web portal to all federal, state and local government web resources and services.